sensor_id;sensor_type;location;lat;lon;timestamp;P1;durP1;ratioP1;P2;durP2;ratioP2
2299;SDS011;1158;48.750;9.078;2023-12-29T00:02:04;5.47;;;3.10;;
2299;SDS011;1158;48.750;9.078;2023-12-29T00:04:31;3.87;;;3.10;;
2299;SDS011;1158;48.750;9.078;2023-12-29T00:06:59;6.03;;;3.00;;
2299;SDS011;1158;48.750;9.078;2023-12-29T00:09:27;4.47;;;3.20;;
2299;SDS011;1158;48.750;9.078;2023-12-29T00:11:53;4.80;;;3.70;;
2299;SDS011;1158;48.750;9.078;2023-12-29T00:14:20;4.30;;;2.80;;
2299;SDS011;1158;48.750;9.078;2023-12-29T00:16:47;6.43;;;3.63;;
2299;SDS011;1158;48.750;9.078;2023-12-29T00:19:14;6.80;;;3.27;;
2299;SDS011;1158;48.750;9.078;2023-12-29T00:21:40;4.83;;;3.27;;
2299;SDS011;1158;48.750;9.078;2023-12-29T00:24:09;6.53;;;3.70;;
2299;SDS011;1158;48.750;9.078;2023-12-29T00:26:35;5.67;;;3.50;;
2299;SDS011;1158;48.750;9.078;2023-12-29T00:29:02;4.80;;;3.00;;
2299;SDS011;1158;48.750;9.078;2023-12-29T00:31:31;4.13;;;2.70;;
2299;SDS011;1158;48.750;9.078;2023-12-29T00:33:57;4.60;;;3.03;;
2299;SDS011;1158;48.750;9.078;2023-12-29T00:36:24;3.57;;;2.67;;
2299;SDS011;1158;48.750;9.078;2023-12-29T00:38:51;4.23;;;3.00;;
2299;SDS011;1158;48.750;9.078;2023-12-29T00:41:19;4.30;;;3.20;;
2299;SDS011;1158;48.750;9.078;2023-12-29T00:43:45;4.43;;;3.10;;
2299;SDS011;1158;48.750;9.078;2023-12-29T00:46:13;5.20;;;3.40;;
2299;SDS011;1158;48.750;9.078;2023-12-29T00:48:40;5.97;;;3.00;;
2299;SDS011;1158;48.750;9.078;2023-12-29T00:51:07;7.10;;;3.00;;
2299;SDS011;1158;48.750;9.078;2023-12-29T00:53:34;5.13;;;3.30;;
2299;SDS011;1158;48.750;9.078;2023-12-29T00:56:01;5.00;;;2.80;;
2299;SDS011;1158;48.750;9.078;2023-12-29T00:58:30;10.80;;;3.17;;
2299;SDS011;1158;48.750;9.078;2023-12-29T01:00:57;4.57;;;3.20;;
2299;SDS011;1158;48.750;9.078;2023-12-29T01:03:23;6.90;;;3.20;;
2299;SDS011;1158;48.750;9.078;2023-12-29T01:05:50;5.30;;;3.20;;
2299;SDS011;1158;48.750;9.078;2023-12-29T01:08:17;5.23;;;3.43;;
2299;SDS011;1158;48.750;9.078;2023-12-29T01:10:43;5.23;;;3.53;;
2299;SDS011;1158;48.750;9.078;2023-12-29T01:13:10;4.27;;;2.87;;
2299;SDS011;1158;48.750;9.078;2023-12-29T01:15:39;4.27;;;3.17;;
2299;SDS011;1158;48.750;9.078;2023-12-29T01:18:09;5.10;;;3.30;;
2299;SDS011;1158;48.750;9.078;2023-12-29T01:20:36;7.73;;;3.47;;
2299;SDS011;1158;48.750;9.078;2023-12-29T01:23:04;5.40;;;3.97;;
2299;SDS011;1158;48.750;9.078;2023-12-29T01:25:30;4.97;;;3.07;;
2299;SDS011;1158;48.750;9.078;2023-12-29T01:27:57;6.00;;;3.90;;
2299;SDS011;1158;48.750;9.078;2023-12-29T01:30:24;5.50;;;3.80;;
2299;SDS011;1158;48.750;9.078;2023-12-29T01:32:52;8.07;;;3.17;;
2299;SDS011;1158;48.750;9.078;2023-12-29T01:35:19;4.50;;;3.17;;
2299;SDS011;1158;48.750;9.078;2023-12-29T01:37:45;5.20;;;3.30;;
2299;SDS011;1158;48.750;9.078;2023-12-29T01:40:12;5.50;;;3.07;;
2299;SDS011;1158;48.750;9.078;2023-12-29T01:42:40;6.77;;;3.33;;
2299;SDS011;1158;48.750;9.078;2023-12-29T01:45:07;6.10;;;4.13;;
2299;SDS011;1158;48.750;9.078;2023-12-29T01:47:47;7.40;;;3.80;;
2299;SDS011;1158;48.750;9.078;2023-12-29T01:50:15;4.90;;;3.63;;
2299;SDS011;1158;48.750;9.078;2023-12-29T01:52:43;5.10;;;3.20;;
2299;SDS011;1158;48.750;9.078;2023-12-29T01:55:12;5.67;;;3.60;;
2299;SDS011;1158;48.750;9.078;2023-12-29T01:57:41;5.67;;;3.93;;
2299;SDS011;1158;48.750;9.078;2023-12-29T02:00:10;4.00;;;3.47;;
2299;SDS011;1158;48.750;9.078;2023-12-29T02:02:38;5.93;;;3.50;;
2299;SDS011;1158;48.750;9.078;2023-12-29T02:05:05;5.73;;;3.97;;
2299;SDS011;1158;48.750;9.078;2023-12-29T02:07:34;6.30;;;3.63;;
2299;SDS011;1158;48.750;9.078;2023-12-29T02:10:01;5.27;;;3.37;;
2299;SDS011;1158;48.750;9.078;2023-12-29T02:12:28;5.60;;;3.97;;
2299;SDS011;1158;48.750;9.078;2023-12-29T02:14:55;5.50;;;3.63;;
2299;SDS011;1158;48.750;9.078;2023-12-29T02:17:22;6.37;;;3.50;;
2299;SDS011;1158;48.750;9.078;2023-12-29T02:19:52;5.83;;;4.27;;
2299;SDS011;1158;48.750;9.078;2023-12-29T02:22:19;11.20;;;4.10;;
2299;SDS011;1158;48.750;9.078;2023-12-29T02:24:47;4.80;;;3.37;;
2299;SDS011;1158;48.750;9.078;2023-12-29T02:27:18;6.43;;;4.30;;
2299;SDS011;1158;48.750;9.078;2023-12-29T02:29:57;7.03;;;4.10;;
2299;SDS011;1158;48.750;9.078;2023-12-29T02:32:34;6.43;;;4.03;;
2299;SDS011;1158;48.750;9.078;2023-12-29T02:35:04;6.83;;;4.67;;
2299;SDS011;1158;48.750;9.078;2023-12-29T02:37:33;5.83;;;3.97;;
2299;SDS011;1158;48.750;9.078;2023-12-29T02:40:04;5.60;;;3.80;;
2299;SDS011;1158;48.750;9.078;2023-12-29T02:42:31;7.07;;;4.07;;
2299;SDS011;1158;48.750;9.078;2023-12-29T02:44:58;7.70;;;4.50;;
2299;SDS011;1158;48.750;9.078;2023-12-29T02:47:25;5.13;;;3.57;;
2299;SDS011;1158;48.750;9.078;2023-12-29T02:49:52;6.00;;;4.00;;
2299;SDS011;1158;48.750;9.078;2023-12-29T02:52:19;6.23;;;4.00;;
2299;SDS011;1158;48.750;9.078;2023-12-29T02:54:46;5.57;;;3.90;;
2299;SDS011;1158;48.750;9.078;2023-12-29T02:57:14;8.30;;;4.33;;
2299;SDS011;1158;48.750;9.078;2023-12-29T02:59:41;5.60;;;3.90;;
2299;SDS011;1158;48.750;9.078;2023-12-29T03:02:08;5.50;;;3.77;;
2299;SDS011;1158;48.750;9.078;2023-12-29T03:04:34;6.03;;;4.20;;
2299;SDS011;1158;48.750;9.078;2023-12-29T03:07:01;6.37;;;4.20;;
2299;SDS011;1158;48.750;9.078;2023-12-29T03:09:28;7.20;;;4.70;;
2299;SDS011;1158;48.750;9.078;2023-12-29T03:11:55;6.03;;;4.73;;
2299;SDS011;1158;48.750;9.078;2023-12-29T03:14:23;6.50;;;4.90;;
2299;SDS011;1158;48.750;9.078;2023-12-29T03:16:49;5.37;;;4.23;;
2299;SDS011;1158;48.750;9.078;2023-12-29T03:19:16;6.47;;;4.80;;
2299;SDS011;1158;48.750;9.078;2023-12-29T03:21:43;6.53;;;5.00;;
2299;SDS011;1158;48.750;9.078;2023-12-29T03:24:10;6.20;;;4.37;;
2299;SDS011;1158;48.750;9.078;2023-12-29T03:26:36;6.10;;;4.07;;
2299;SDS011;1158;48.750;9.078;2023-12-29T03:29:04;5.70;;;4.20;;
2299;SDS011;1158;48.750;9.078;2023-12-29T03:31:32;6.80;;;4.80;;
2299;SDS011;1158;48.750;9.078;2023-12-29T03:33:59;6.23;;;4.23;;
2299;SDS011;1158;48.750;9.078;2023-12-29T03:36:26;6.60;;;4.60;;
2299;SDS011;1158;48.750;9.078;2023-12-29T03:38:52;8.10;;;4.17;;
2299;SDS011;1158;48.750;9.078;2023-12-29T03:41:19;6.90;;;4.87;;
2299;SDS011;1158;48.750;9.078;2023-12-29T03:43:46;6.67;;;4.80;;
2299;SDS011;1158;48.750;9.078;2023-12-29T03:46:16;7.17;;;5.07;;
2299;SDS011;1158;48.750;9.078;2023-12-29T03:48:44;9.93;;;4.70;;
2299;SDS011;1158;48.750;9.078;2023-12-29T03:51:11;6.53;;;4.53;;
2299;SDS011;1158;48.750;9.078;2023-12-29T03:53:38;5.17;;;3.87;;
2299;SDS011;1158;48.750;9.078;2023-12-29T03:56:06;7.27;;;4.20;;
2299;SDS011;1158;48.750;9.078;2023-12-29T03:58:33;7.10;;;4.13;;
2299;SDS011;1158;48.750;9.078;2023-12-29T04:01:00;5.57;;;4.40;;
2299;SDS011;1158;48.750;9.078;2023-12-29T04:03:27;5.70;;;4.10;;
2299;SDS011;1158;48.750;9.078;2023-12-29T04:05:55;5.77;;;4.53;;
2299;SDS011;1158;48.750;9.078;2023-12-29T04:08:22;6.50;;;4.57;;
2299;SDS011;1158;48.750;9.078;2023-12-29T04:10:48;6.20;;;4.37;;
2299;SDS011;1158;48.750;9.078;2023-12-29T04:13:15;6.80;;;4.27;;
2299;SDS011;1158;48.750;9.078;2023-12-29T04:15:42;6.83;;;4.30;;
2299;SDS011;1158;48.750;9.078;2023-12-29T04:18:08;7.27;;;4.40;;
2299;SDS011;1158;48.750;9.078;2023-12-29T04:20:35;7.43;;;4.73;;
2299;SDS011;1158;48.750;9.078;2023-12-29T04:23:04;5.20;;;3.90;;
2299;SDS011;1158;48.750;9.078;2023-12-29T04:25:32;5.80;;;3.90;;
2299;SDS011;1158;48.750;9.078;2023-12-29T04:27:59;7.20;;;4.07;;
2299;SDS011;1158;48.750;9.078;2023-12-29T04:30:25;8.70;;;4.37;;
2299;SDS011;1158;48.750;9.078;2023-12-29T04:32:52;7.90;;;4.27;;
2299;SDS011;1158;48.750;9.078;2023-12-29T04:35:19;5.23;;;4.03;;
2299;SDS011;1158;48.750;9.078;2023-12-29T04:37:46;7.67;;;4.80;;
2299;SDS011;1158;48.750;9.078;2023-12-29T04:40:14;5.40;;;4.30;;
2299;SDS011;1158;48.750;9.078;2023-12-29T04:42:41;6.83;;;4.30;;
2299;SDS011;1158;48.750;9.078;2023-12-29T04:45:08;6.67;;;4.40;;
2299;SDS011;1158;48.750;9.078;2023-12-29T04:47:35;9.73;;;5.23;;
2299;SDS011;1158;48.750;9.078;2023-12-29T04:50:02;8.17;;;4.63;;
2299;SDS011;1158;48.750;9.078;2023-12-29T04:52:30;8.00;;;4.47;;
2299;SDS011;1158;48.750;9.078;2023-12-29T04:54:57;9.00;;;4.70;;
2299;SDS011;1158;48.750;9.078;2023-12-29T04:57:26;5.63;;;4.40;;
2299;SDS011;1158;48.750;9.078;2023-12-29T04:59:52;6.90;;;4.20;;
2299;SDS011;1158;48.750;9.078;2023-12-29T05:02:19;9.10;;;4.43;;
2299;SDS011;1158;48.750;9.078;2023-12-29T05:04:46;11.10;;;5.13;;
2299;SDS011;1158;48.750;9.078;2023-12-29T05:07:13;6.50;;;4.30;;
2299;SDS011;1158;48.750;9.078;2023-12-29T05:09:40;7.60;;;5.20;;
2299;SDS011;1158;48.750;9.078;2023-12-29T05:12:06;6.00;;;4.00;;
2299;SDS011;1158;48.750;9.078;2023-12-29T05:14:34;10.10;;;5.30;;
2299;SDS011;1158;48.750;9.078;2023-12-29T05:17:01;6.03;;;4.47;;
2299;SDS011;1158;48.750;9.078;2023-12-29T05:19:28;10.30;;;4.37;;
2299;SDS011;1158;48.750;9.078;2023-12-29T05:21:55;6.90;;;5.00;;
2299;SDS011;1158;48.750;9.078;2023-12-29T05:24:21;7.57;;;4.50;;
2299;SDS011;1158;48.750;9.078;2023-12-29T05:26:48;5.10;;;3.83;;
2299;SDS011;1158;48.750;9.078;2023-12-29T05:29:15;5.97;;;4.40;;
2299;SDS011;1158;48.750;9.078;2023-12-29T05:31:43;7.60;;;5.40;;
2299;SDS011;1158;48.750;9.078;2023-12-29T05:34:09;6.33;;;4.90;;
2299;SDS011;1158;48.750;9.078;2023-12-29T05:36:36;8.50;;;4.87;;
2299;SDS011;1158;48.750;9.078;2023-12-29T05:39:03;6.70;;;4.50;;
2299;SDS011;1158;48.750;9.078;2023-12-29T05:41:31;7.40;;;4.47;;
2299;SDS011;1158;48.750;9.078;2023-12-29T05:43:58;7.10;;;5.63;;
2299;SDS011;1158;48.750;9.078;2023-12-29T05:46:26;6.40;;;4.00;;
2299;SDS011;1158;48.750;9.078;2023-12-29T05:48:54;6.83;;;4.60;;
2299;SDS011;1158;48.750;9.078;2023-12-29T05:51:21;6.60;;;4.93;;
2299;SDS011;1158;48.750;9.078;2023-12-29T05:53:48;6.13;;;4.50;;
2299;SDS011;1158;48.750;9.078;2023-12-29T05:56:15;6.23;;;4.80;;
2299;SDS011;1158;48.750;9.078;2023-12-29T05:58:42;8.17;;;4.77;;
2299;SDS011;1158;48.750;9.078;2023-12-29T06:01:08;7.90;;;5.70;;
2299;SDS011;1158;48.750;9.078;2023-12-29T06:03:35;9.07;;;4.93;;
2299;SDS011;1158;48.750;9.078;2023-12-29T06:06:04;7.27;;;4.83;;
2299;SDS011;1158;48.750;9.078;2023-12-29T06:08:31;7.10;;;4.73;;
2299;SDS011;1158;48.750;9.078;2023-12-29T06:10:57;6.43;;;4.77;;
2299;SDS011;1158;48.750;9.078;2023-12-29T06:13:24;7.20;;;4.80;;
2299;SDS011;1158;48.750;9.078;2023-12-29T06:15:51;4.70;;;3.87;;
2299;SDS011;1158;48.750;9.078;2023-12-29T06:18:18;7.50;;;4.33;;
2299;SDS011;1158;48.750;9.078;2023-12-29T06:20:44;7.97;;;4.50;;
2299;SDS011;1158;48.750;9.078;2023-12-29T06:23:12;5.80;;;4.20;;
2299;SDS011;1158;48.750;9.078;2023-12-29T06:25:39;7.10;;;4.70;;
2299;SDS011;1158;48.750;9.078;2023-12-29T06:28:06;6.47;;;4.23;;
2299;SDS011;1158;48.750;9.078;2023-12-29T06:30:33;7.30;;;4.50;;
2299;SDS011;1158;48.750;9.078;2023-12-29T06:33:00;5.77;;;4.40;;
2299;SDS011;1158;48.750;9.078;2023-12-29T06:35:27;8.03;;;4.70;;
2299;SDS011;1158;48.750;9.078;2023-12-29T06:37:53;7.60;;;4.57;;
2299;SDS011;1158;48.750;9.078;2023-12-29T06:40:21;7.47;;;3.90;;
2299;SDS011;1158;48.750;9.078;2023-12-29T06:42:48;7.83;;;4.70;;
2299;SDS011;1158;48.750;9.078;2023-12-29T06:45:15;8.50;;;4.17;;
2299;SDS011;1158;48.750;9.078;2023-12-29T06:47:41;11.50;;;5.60;;
2299;SDS011;1158;48.750;9.078;2023-12-29T06:50:08;5.93;;;4.00;;
2299;SDS011;1158;48.750;9.078;2023-12-29T06:52:37;6.53;;;4.33;;
2299;SDS011;1158;48.750;9.078;2023-12-29T06:55:05;9.03;;;5.13;;
2299;SDS011;1158;48.750;9.078;2023-12-29T06:57:33;6.67;;;4.30;;
2299;SDS011;1158;48.750;9.078;2023-12-29T07:00:00;7.60;;;4.77;;
2299;SDS011;1158;48.750;9.078;2023-12-29T07:02:27;10.20;;;5.37;;
2299;SDS011;1158;48.750;9.078;2023-12-29T07:04:53;6.40;;;4.67;;
2299;SDS011;1158;48.750;9.078;2023-12-29T07:07:20;6.40;;;3.80;;
2299;SDS011;1158;48.750;9.078;2023-12-29T07:09:47;9.53;;;4.67;;
2299;SDS011;1158;48.750;9.078;2023-12-29T07:12:13;8.50;;;5.07;;
2299;SDS011;1158;48.750;9.078;2023-12-29T07:14:42;6.30;;;4.37;;
2299;SDS011;1158;48.750;9.078;2023-12-29T07:17:08;10.70;;;4.40;;
2299;SDS011;1158;48.750;9.078;2023-12-29T07:19:35;5.33;;;4.03;;
2299;SDS011;1158;48.750;9.078;2023-12-29T07:22:03;5.43;;;4.27;;
2299;SDS011;1158;48.750;9.078;2023-12-29T07:24:31;8.00;;;4.23;;
2299;SDS011;1158;48.750;9.078;2023-12-29T07:26:58;5.97;;;4.47;;
2299;SDS011;1158;48.750;9.078;2023-12-29T07:29:25;6.70;;;4.50;;
2299;SDS011;1158;48.750;9.078;2023-12-29T07:31:53;7.40;;;4.53;;
2299;SDS011;1158;48.750;9.078;2023-12-29T07:34:20;8.00;;;4.57;;
2299;SDS011;1158;48.750;9.078;2023-12-29T07:36:47;7.47;;;4.20;;
2299;SDS011;1158;48.750;9.078;2023-12-29T07:39:13;6.60;;;4.20;;
2299;SDS011;1158;48.750;9.078;2023-12-29T07:41:40;10.50;;;4.23;;
2299;SDS011;1158;48.750;9.078;2023-12-29T07:44:08;7.90;;;3.70;;
2299;SDS011;1158;48.750;9.078;2023-12-29T07:46:37;8.13;;;3.80;;
2299;SDS011;1158;48.750;9.078;2023-12-29T07:49:05;8.00;;;4.83;;
2299;SDS011;1158;48.750;9.078;2023-12-29T07:51:32;7.90;;;4.07;;
2299;SDS011;1158;48.750;9.078;2023-12-29T07:53:59;4.73;;;3.80;;
2299;SDS011;1158;48.750;9.078;2023-12-29T07:56:25;7.90;;;4.73;;
2299;SDS011;1158;48.750;9.078;2023-12-29T07:58:52;7.03;;;4.83;;
2299;SDS011;1158;48.750;9.078;2023-12-29T08:01:19;5.10;;;3.93;;
2299;SDS011;1158;48.750;9.078;2023-12-29T08:03:45;6.23;;;4.10;;
2299;SDS011;1158;48.750;9.078;2023-12-29T08:06:13;6.70;;;4.87;;
2299;SDS011;1158;48.750;9.078;2023-12-29T08:08:40;5.30;;;3.83;;
2299;SDS011;1158;48.750;9.078;2023-12-29T08:11:12;9.83;;;4.20;;
2299;SDS011;1158;48.750;9.078;2023-12-29T08:13:39;6.53;;;4.33;;
2299;SDS011;1158;48.750;9.078;2023-12-29T08:16:06;5.50;;;3.97;;
2299;SDS011;1158;48.750;9.078;2023-12-29T08:18:34;6.00;;;3.80;;
2299;SDS011;1158;48.750;9.078;2023-12-29T08:21:01;5.37;;;3.70;;
2299;SDS011;1158;48.750;9.078;2023-12-29T08:23:29;6.50;;;4.33;;
2299;SDS011;1158;48.750;9.078;2023-12-29T08:25:56;4.20;;;3.43;;
2299;SDS011;1158;48.750;9.078;2023-12-29T08:28:23;4.87;;;3.70;;
2299;SDS011;1158;48.750;9.078;2023-12-29T08:30:50;6.50;;;3.60;;
2299;SDS011;1158;48.750;9.078;2023-12-29T08:33:17;6.20;;;4.13;;
2299;SDS011;1158;48.750;9.078;2023-12-29T08:35:44;8.90;;;3.77;;
2299;SDS011;1158;48.750;9.078;2023-12-29T08:38:11;12.60;;;4.50;;
2299;SDS011;1158;48.750;9.078;2023-12-29T08:40:40;5.93;;;3.93;;
2299;SDS011;1158;48.750;9.078;2023-12-29T08:43:07;5.70;;;3.07;;
2299;SDS011;1158;48.750;9.078;2023-12-29T08:45:37;6.80;;;3.90;;
2299;SDS011;1158;48.750;9.078;2023-12-29T08:48:04;5.77;;;4.20;;
2299;SDS011;1158;48.750;9.078;2023-12-29T08:50:31;6.60;;;4.07;;
2299;SDS011;1158;48.750;9.078;2023-12-29T08:52:58;5.20;;;3.67;;
2299;SDS011;1158;48.750;9.078;2023-12-29T08:55:25;5.87;;;3.60;;
2299;SDS011;1158;48.750;9.078;2023-12-29T08:57:53;5.27;;;3.80;;
2299;SDS011;1158;48.750;9.078;2023-12-29T09:00:20;5.33;;;3.70;;
2299;SDS011;1158;48.750;9.078;2023-12-29T09:02:46;6.03;;;3.80;;
2299;SDS011;1158;48.750;9.078;2023-12-29T09:05:13;4.47;;;3.30;;
2299;SDS011;1158;48.750;9.078;2023-12-29T09:07:41;5.73;;;4.30;;
2299;SDS011;1158;48.750;9.078;2023-12-29T09:10:08;5.13;;;3.23;;
2299;SDS011;1158;48.750;9.078;2023-12-29T09:12:36;7.50;;;3.97;;
2299;SDS011;1158;48.750;9.078;2023-12-29T09:15:05;5.90;;;3.97;;
2299;SDS011;1158;48.750;9.078;2023-12-29T09:17:33;5.27;;;3.40;;
2299;SDS011;1158;48.750;9.078;2023-12-29T09:20:00;6.47;;;3.80;;
2299;SDS011;1158;48.750;9.078;2023-12-29T09:22:26;4.80;;;3.60;;
2299;SDS011;1158;48.750;9.078;2023-12-29T09:24:53;5.13;;;3.20;;
2299;SDS011;1158;48.750;9.078;2023-12-29T09:27:20;5.57;;;3.03;;
2299;SDS011;1158;48.750;9.078;2023-12-29T09:29:47;4.40;;;2.83;;
2299;SDS011;1158;48.750;9.078;2023-12-29T09:32:17;5.73;;;2.93;;
2299;SDS011;1158;48.750;9.078;2023-12-29T09:34:44;5.80;;;3.20;;
2299;SDS011;1158;48.750;9.078;2023-12-29T09:37:11;5.27;;;3.13;;
2299;SDS011;1158;48.750;9.078;2023-12-29T09:39:37;4.80;;;3.23;;
2299;SDS011;1158;48.750;9.078;2023-12-29T09:42:04;4.23;;;2.93;;
2299;SDS011;1158;48.750;9.078;2023-12-29T09:44:33;4.57;;;2.70;;
2299;SDS011;1158;48.750;9.078;2023-12-29T09:47:02;3.97;;;2.73;;
2299;SDS011;1158;48.750;9.078;2023-12-29T09:49:34;4.10;;;2.90;;
2299;SDS011;1158;48.750;9.078;2023-12-29T09:52:03;3.20;;;2.47;;
2299;SDS011;1158;48.750;9.078;2023-12-29T09:54:31;3.97;;;3.13;;
2299;SDS011;1158;48.750;9.078;2023-12-29T09:56:58;5.00;;;3.30;;
2299;SDS011;1158;48.750;9.078;2023-12-29T09:59:26;5.00;;;2.47;;
2299;SDS011;1158;48.750;9.078;2023-12-29T10:01:54;3.70;;;2.83;;
2299;SDS011;1158;48.750;9.078;2023-12-29T10:04:22;4.63;;;3.03;;
2299;SDS011;1158;48.750;9.078;2023-12-29T10:06:50;4.70;;;2.97;;
2299;SDS011;1158;48.750;9.078;2023-12-29T10:09:18;4.77;;;2.57;;
2299;SDS011;1158;48.750;9.078;2023-12-29T10:11:47;3.80;;;2.97;;
2299;SDS011;1158;48.750;9.078;2023-12-29T10:14:17;4.17;;;2.60;;
2299;SDS011;1158;48.750;9.078;2023-12-29T10:16:50;5.83;;;2.57;;
2299;SDS011;1158;48.750;9.078;2023-12-29T10:19:27;5.73;;;2.80;;
2299;SDS011;1158;48.750;9.078;2023-12-29T10:22:06;3.87;;;2.67;;
2299;SDS011;1158;48.750;9.078;2023-12-29T10:24:37;3.17;;;2.20;;
2299;SDS011;1158;48.750;9.078;2023-12-29T10:27:05;3.37;;;2.27;;
2299;SDS011;1158;48.750;9.078;2023-12-29T10:29:31;3.97;;;2.40;;
2299;SDS011;1158;48.750;9.078;2023-12-29T10:31:58;3.93;;;2.23;;
2299;SDS011;1158;48.750;9.078;2023-12-29T10:34:25;2.60;;;1.97;;
2299;SDS011;1158;48.750;9.078;2023-12-29T10:36:54;3.47;;;2.40;;
2299;SDS011;1158;48.750;9.078;2023-12-29T10:39:23;4.00;;;2.30;;
2299;SDS011;1158;48.750;9.078;2023-12-29T10:41:50;2.73;;;2.00;;
2299;SDS011;1158;48.750;9.078;2023-12-29T10:44:28;3.37;;;2.00;;
2299;SDS011;1158;48.750;9.078;2023-12-29T10:46:55;3.43;;;2.10;;
2299;SDS011;1158;48.750;9.078;2023-12-29T10:49:22;2.40;;;1.70;;
2299;SDS011;1158;48.750;9.078;2023-12-29T10:51:48;4.00;;;1.97;;
2299;SDS011;1158;48.750;9.078;2023-12-29T10:54:19;3.80;;;2.00;;
2299;SDS011;1158;48.750;9.078;2023-12-29T10:56:54;2.97;;;1.80;;
2299;SDS011;1158;48.750;9.078;2023-12-29T10:59:27;2.70;;;1.70;;
2299;SDS011;1158;48.750;9.078;2023-12-29T11:01:55;3.00;;;1.80;;
2299;SDS011;1158;48.750;9.078;2023-12-29T11:04:22;5.30;;;2.13;;
2299;SDS011;1158;48.750;9.078;2023-12-29T11:06:49;3.80;;;1.80;;
2299;SDS011;1158;48.750;9.078;2023-12-29T11:09:21;3.20;;;1.93;;
2299;SDS011;1158;48.750;9.078;2023-12-29T11:11:55;2.47;;;1.80;;
2299;SDS011;1158;48.750;9.078;2023-12-29T11:14:23;4.70;;;1.83;;
2299;SDS011;1158;48.750;9.078;2023-12-29T11:16:51;3.53;;;1.93;;
2299;SDS011;1158;48.750;9.078;2023-12-29T11:19:20;3.67;;;1.90;;
2299;SDS011;1158;48.750;9.078;2023-12-29T11:21:46;4.10;;;2.17;;
2299;SDS011;1158;48.750;9.078;2023-12-29T11:24:14;3.40;;;1.77;;
2299;SDS011;1158;48.750;9.078;2023-12-29T11:26:41;2.10;;;1.60;;
2299;SDS011;1158;48.750;9.078;2023-12-29T11:29:11;2.20;;;1.50;;
2299;SDS011;1158;48.750;9.078;2023-12-29T11:31:38;4.53;;;1.60;;
2299;SDS011;1158;48.750;9.078;2023-12-29T11:34:06;2.47;;;1.60;;
2299;SDS011;1158;48.750;9.078;2023-12-29T11:36:38;3.00;;;1.90;;
2299;SDS011;1158;48.750;9.078;2023-12-29T11:39:11;2.50;;;1.50;;
2299;SDS011;1158;48.750;9.078;2023-12-29T11:41:47;1.83;;;1.23;;
2299;SDS011;1158;48.750;9.078;2023-12-29T11:44:25;2.70;;;1.70;;
2299;SDS011;1158;48.750;9.078;2023-12-29T11:46:52;2.50;;;1.53;;
2299;SDS011;1158;48.750;9.078;2023-12-29T11:49:19;2.20;;;1.50;;
2299;SDS011;1158;48.750;9.078;2023-12-29T11:51:46;2.00;;;1.27;;
2299;SDS011;1158;48.750;9.078;2023-12-29T11:54:20;2.50;;;1.20;;
2299;SDS011;1158;48.750;9.078;2023-12-29T11:56:48;2.40;;;1.23;;
2299;SDS011;1158;48.750;9.078;2023-12-29T11:59:15;2.67;;;1.60;;
2299;SDS011;1158;48.750;9.078;2023-12-29T12:01:46;2.10;;;1.30;;
2299;SDS011;1158;48.750;9.078;2023-12-29T12:07:04;3.50;;;1.60;;
2299;SDS011;1158;48.750;9.078;2023-12-29T12:09:32;1.83;;;1.20;;
2299;SDS011;1158;48.750;9.078;2023-12-29T12:12:00;3.47;;;1.53;;
2299;SDS011;1158;48.750;9.078;2023-12-29T12:14:47;2.50;;;1.57;;
2299;SDS011;1158;48.750;9.078;2023-12-29T12:17:29;3.07;;;1.90;;
2299;SDS011;1158;48.750;9.078;2023-12-29T12:19:58;3.37;;;1.70;;
2299;SDS011;1158;48.750;9.078;2023-12-29T12:22:28;2.20;;;1.53;;
2299;SDS011;1158;48.750;9.078;2023-12-29T12:24:57;2.30;;;1.50;;
2299;SDS011;1158;48.750;9.078;2023-12-29T12:27:24;2.33;;;1.60;;
2299;SDS011;1158;48.750;9.078;2023-12-29T12:29:52;3.20;;;1.83;;
2299;SDS011;1158;48.750;9.078;2023-12-29T12:32:22;3.07;;;1.93;;
2299;SDS011;1158;48.750;9.078;2023-12-29T12:34:52;2.70;;;1.40;;
2299;SDS011;1158;48.750;9.078;2023-12-29T12:37:19;2.10;;;1.57;;
2299;SDS011;1158;48.750;9.078;2023-12-29T12:39:47;2.70;;;1.50;;
2299;SDS011;1158;48.750;9.078;2023-12-29T12:42:15;2.20;;;1.57;;
2299;SDS011;1158;48.750;9.078;2023-12-29T12:44:46;2.70;;;1.60;;
2299;SDS011;1158;48.750;9.078;2023-12-29T12:47:17;2.80;;;1.40;;
2299;SDS011;1158;48.750;9.078;2023-12-29T12:49:50;2.47;;;1.53;;
2299;SDS011;1158;48.750;9.078;2023-12-29T12:52:18;2.03;;;1.40;;
2299;SDS011;1158;48.750;9.078;2023-12-29T12:54:45;3.00;;;1.90;;
2299;SDS011;1158;48.750;9.078;2023-12-29T12:57:13;2.70;;;1.60;;
2299;SDS011;1158;48.750;9.078;2023-12-29T12:59:43;2.67;;;1.70;;
2299;SDS011;1158;48.750;9.078;2023-12-29T13:02:10;2.93;;;1.97;;
2299;SDS011;1158;48.750;9.078;2023-12-29T13:04:39;2.10;;;1.40;;
2299;SDS011;1158;48.750;9.078;2023-12-29T13:07:06;2.63;;;1.70;;
2299;SDS011;1158;48.750;9.078;2023-12-29T13:09:36;1.93;;;1.23;;
2299;SDS011;1158;48.750;9.078;2023-12-29T13:12:10;2.30;;;1.47;;
2299;SDS011;1158;48.750;9.078;2023-12-29T13:14:38;2.90;;;1.33;;
2299;SDS011;1158;48.750;9.078;2023-12-29T13:17:05;2.47;;;1.60;;
2299;SDS011;1158;48.750;9.078;2023-12-29T13:19:32;3.30;;;1.60;;
2299;SDS011;1158;48.750;9.078;2023-12-29T13:22:00;2.33;;;1.67;;
2299;SDS011;1158;48.750;9.078;2023-12-29T13:24:28;3.40;;;1.53;;
2299;SDS011;1158;48.750;9.078;2023-12-29T13:26:57;2.53;;;1.50;;
2299;SDS011;1158;48.750;9.078;2023-12-29T13:29:28;2.27;;;1.60;;
2299;SDS011;1158;48.750;9.078;2023-12-29T13:31:56;5.30;;;2.10;;
2299;SDS011;1158;48.750;9.078;2023-12-29T13:34:27;2.30;;;1.50;;
2299;SDS011;1158;48.750;9.078;2023-12-29T13:37:01;2.87;;;1.43;;
2299;SDS011;1158;48.750;9.078;2023-12-29T13:39:29;4.13;;;1.67;;
2299;SDS011;1158;48.750;9.078;2023-12-29T13:42:02;3.97;;;1.80;;
2299;SDS011;1158;48.750;9.078;2023-12-29T13:44:31;2.20;;;1.40;;
2299;SDS011;1158;48.750;9.078;2023-12-29T13:46:59;3.30;;;1.90;;
2299;SDS011;1158;48.750;9.078;2023-12-29T13:49:26;2.93;;;1.70;;
2299;SDS011;1158;48.750;9.078;2023-12-29T13:51:53;3.33;;;1.87;;
2299;SDS011;1158;48.750;9.078;2023-12-29T13:54:19;1.90;;;1.20;;
2299;SDS011;1158;48.750;9.078;2023-12-29T13:56:52;2.93;;;1.70;;
2299;SDS011;1158;48.750;9.078;2023-12-29T13:59:29;3.10;;;1.93;;
2299;SDS011;1158;48.750;9.078;2023-12-29T14:01:58;3.40;;;1.80;;
2299;SDS011;1158;48.750;9.078;2023-12-29T14:04:25;3.17;;;1.97;;
2299;SDS011;1158;48.750;9.078;2023-12-29T14:06:53;2.10;;;1.70;;
2299;SDS011;1158;48.750;9.078;2023-12-29T14:09:25;3.03;;;1.87;;
2299;SDS011;1158;48.750;9.078;2023-12-29T14:11:51;4.87;;;1.67;;
2299;SDS011;1158;48.750;9.078;2023-12-29T14:14:22;3.37;;;1.50;;
2299;SDS011;1158;48.750;9.078;2023-12-29T14:16:51;2.87;;;1.77;;
2299;SDS011;1158;48.750;9.078;2023-12-29T14:19:18;2.60;;;1.40;;
2299;SDS011;1158;48.750;9.078;2023-12-29T14:21:45;2.23;;;1.60;;
2299;SDS011;1158;48.750;9.078;2023-12-29T14:24:15;2.23;;;1.73;;
2299;SDS011;1158;48.750;9.078;2023-12-29T14:26:43;3.27;;;1.50;;
2299;SDS011;1158;48.750;9.078;2023-12-29T14:29:21;2.90;;;1.80;;
2299;SDS011;1158;48.750;9.078;2023-12-29T14:31:48;3.03;;;1.90;;
2299;SDS011;1158;48.750;9.078;2023-12-29T14:34:17;2.30;;;1.50;;
2299;SDS011;1158;48.750;9.078;2023-12-29T14:36:45;3.10;;;1.60;;
2299;SDS011;1158;48.750;9.078;2023-12-29T14:39:12;3.00;;;1.80;;
2299;SDS011;1158;48.750;9.078;2023-12-29T14:41:40;2.37;;;1.87;;
2299;SDS011;1158;48.750;9.078;2023-12-29T14:44:07;2.60;;;1.63;;
2299;SDS011;1158;48.750;9.078;2023-12-29T14:46:34;2.13;;;1.57;;
2299;SDS011;1158;48.750;9.078;2023-12-29T14:49:03;2.47;;;2.13;;
2299;SDS011;1158;48.750;9.078;2023-12-29T14:51:30;2.73;;;1.83;;
2299;SDS011;1158;48.750;9.078;2023-12-29T14:53:57;2.57;;;1.77;;
2299;SDS011;1158;48.750;9.078;2023-12-29T14:56:23;3.00;;;1.50;;
2299;SDS011;1158;48.750;9.078;2023-12-29T14:58:50;2.60;;;1.77;;
2299;SDS011;1158;48.750;9.078;2023-12-29T15:01:17;3.40;;;1.80;;
2299;SDS011;1158;48.750;9.078;2023-12-29T15:03:44;3.10;;;2.00;;
2299;SDS011;1158;48.750;9.078;2023-12-29T15:06:12;3.03;;;1.63;;
2299;SDS011;1158;48.750;9.078;2023-12-29T15:08:38;3.70;;;2.10;;
2299;SDS011;1158;48.750;9.078;2023-12-29T15:11:05;3.00;;;1.80;;
2299;SDS011;1158;48.750;9.078;2023-12-29T15:13:33;5.53;;;1.77;;
2299;SDS011;1158;48.750;9.078;2023-12-29T15:16:00;3.30;;;1.93;;
2299;SDS011;1158;48.750;9.078;2023-12-29T15:18:29;3.13;;;1.90;;
2299;SDS011;1158;48.750;9.078;2023-12-29T15:20:56;2.87;;;1.90;;
2299;SDS011;1158;48.750;9.078;2023-12-29T15:23:24;4.67;;;1.90;;